Time;durP1;ratioP1;P1;durP2;ratioP2;P2;SDS_P1;SDS_P2;PMS_P1;PMS_P2;Temp;Humidity;BMP_temperature;BMP_pressure;BME280_temperature;BME280_humidity;BME280_pressure;Samples;Min_cycle;Max_cycle;Signal;HPM_P1;HPM_P2
2022/09/15 00:01:22;;;;;;;9.02;4.25;;;;;;;17.88;100.00;97619.44;4485817;32;20495;-75
2022/09/15 00:03:49;;;;;;;7.20;4.70;;;;;;;17.84;100.00;97612.12;4485971;31;20112;-75
2022/09/15 00:06:17;;;;;;;6.78;4.90;;;;;;;17.81;100.00;97620.50;4489055;31;20139;-75
2022/09/15 00:08:44;;;;;;;9.02;4.80;;;;;;;17.76;100.00;97615.00;4501790;31;20164;-75
2022/09/15 00:11:26;;;;;;;7.95;4.78;;;;;;;17.76;100.00;97631.72;4501646;31;20092;-75
2022/09/15 00:13:54;;;;;;;11.45;4.28;;;;;;;17.75;100.00;97619.50;4501787;31;20155;-75
2022/09/15 00:16:24;;;;;;;5.75;4.18;;;;;;;17.71;100.00;97623.59;4501737;31;20112;-75
2022/09/15 00:18:51;;;;;;;9.18;5.43;;;;;;;17.70;100.00;97621.97;4501721;31;20084;-75
2022/09/15 00:21:23;;;;;;;9.40;4.53;;;;;;;17.66;100.00;97636.66;4501619;31;20092;-75
2022/09/15 00:23:50;;;;;;;5.03;3.78;;;;;;;17.58;100.00;97652.75;4501799;31;20131;-75
2022/09/15 00:26:20;;;;;;;7.00;4.20;;;;;;;17.61;100.00;97663.78;4501656;31;20115;-75
2022/09/15 00:28:47;;;;;;;9.63;4.15;;;;;;;17.62;100.00;97670.69;4501441;31;20099;-75
2022/09/15 00:31:18;;;;;;;6.55;4.40;;;;;;;17.68;100.00;97676.97;4500996;31;20101;-75
2022/09/15 00:33:46;;;;;;;10.32;5.45;;;;;;;17.62;100.00;97683.13;4501528;31;20110;-75
2022/09/15 00:36:14;;;;;;;10.63;6.55;;;;;;;17.49;100.00;97710.47;4501919;31;20110;-74
2022/09/15 00:38:42;;;;;;;9.25;6.60;;;;;;;17.40;100.00;97717.81;4501596;31;20118;-75
2022/09/15 00:41:11;;;;;;;8.45;6.80;;;;;;;17.31;100.00;97727.78;4501422;31;20135;-75
2022/09/15 00:43:52;;;;;;;11.18;6.90;;;;;;;17.36;100.00;97721.87;4501596;31;20122;-75
2022/09/15 00:46:26;;;;;;;8.15;6.80;;;;;;;17.33;100.00;97722.28;4501622;31;20084;-75
2022/09/15 00:48:59;;;;;;;9.43;7.03;;;;;;;17.37;100.00;97720.88;4501470;31;20108;-75
2022/09/15 00:51:44;;;;;;;9.82;6.60;;;;;;;17.33;100.00;97722.28;4501595;31;20080;-75
2022/09/15 00:54:16;;;;;;;9.50;6.72;;;;;;;17.38;100.00;97718.00;4501655;31;20560;-75
2022/09/15 00:56:45;;;;;;;11.10;6.40;;;;;;;17.38;100.00;97714.53;4501493;31;20100;-75
2022/09/15 00:59:18;;;;;;;11.18;6.78;;;;;;;17.39;100.00;97705.59;4501329;31;20480;-75
2022/09/15 01:01:48;;;;;;;8.88;5.87;;;;;;;17.33;100.00;97707.22;4499830;31;20084;-75
2022/09/15 01:04:16;;;;;;;10.15;5.82;;;;;;;17.36;100.00;97713.94;4497358;31;20191;-75
2022/09/15 01:06:47;;;;;;;10.52;5.40;;;;;;;17.37;100.00;97710.28;4484279;32;20133;-75
2022/09/15 01:09:25;;;;;;;7.82;4.78;;;;;;;17.40;100.00;97698.47;4484499;32;20183;-75
2022/09/15 01:11:52;;;;;;;5.75;4.50;;;;;;;17.41;100.00;97703.56;4484316;32;20553;-75
2022/09/15 01:14:20;;;;;;;8.50;5.12;;;;;;;17.41;100.00;97692.97;4485423;31;20128;-75
2022/09/15 01:17:08;;;;;;;7.05;3.97;;;;;;;17.38;100.00;97690.72;4485672;31;20167;-75
2022/09/15 01:20:14;;;;;;;4.28;3.83;;;;;;;17.43;100.00;97688.28;4485659;31;20539;-75
2022/09/15 01:22:51;;;;;;;5.75;3.30;;;;;;;17.46;100.00;97685.22;4485433;31;20147;-75
2022/09/15 01:25:40;;;;;;;5.85;3.22;;;;;;;17.48;100.00;97688.44;4485635;31;20089;-75
2022/09/15 01:28:28;;;;;;;2.70;1.77;;;;;;;17.53;100.00;97690.47;4485454;31;20216;-75
2022/09/15 01:31:01;;;;;;;3.95;2.50;;;;;;;17.66;100.00;97684.34;4485441;31;20173;-75
2022/09/15 01:33:51;;;;;;;2.50;2.30;;;;;;;17.74;100.00;97694.69;4484025;32;20175;-75
2022/09/15 01:36:33;;;;;;;2.65;2.25;;;;;;;17.71;100.00;97687.16;4451764;32;20109;-75
2022/09/15 01:39:12;;;;;;;4.57;2.28;;;;;;;17.65;100.00;97693.28;4451838;32;20150;-75
2022/09/15 01:41:53;;;;;;;4.87;2.40;;;;;;;17.65;100.00;97698.59;4438164;32;20132;-75
2022/09/15 01:44:24;;;;;;;5.43;2.03;;;;;;;17.60;100.00;97703.72;4439105;32;20161;-75
2022/09/15 01:46:56;;;;;;;4.40;2.70;;;;;;;17.60;100.00;97706.34;4439189;32;20661;-75
2022/09/15 01:49:25;;;;;;;2.85;2.55;;;;;;;17.58;100.00;97703.09;4438958;32;20097;-75
2022/09/15 01:51:53;;;;;;;3.53;2.28;;;;;;;17.56;100.00;97705.94;4438883;32;20143;-75
2022/09/15 01:54:32;;;;;;;4.22;2.30;;;;;;;17.60;100.00;97709.00;4451521;32;20123;-75
2022/09/15 01:57:00;;;;;;;5.03;2.35;;;;;;;17.60;100.00;97703.72;4438901;32;20113;-75
2022/09/15 01:59:28;;;;;;;2.80;2.22;;;;;;;17.62;100.00;97720.19;4451394;32;20109;-75
2022/09/15 02:02:00;;;;;;;3.62;2.30;;;;;;;17.60;100.00;97707.16;4438545;32;20735;-75
2022/09/15 02:04:48;;;;;;;2.10;1.90;;;;;;;17.55;100.00;97705.13;4438757;32;20288;-75
2022/09/15 02:07:20;;;;;;;5.03;2.17;;;;;;;17.62;100.00;97706.94;4442438;32;20620;-75
2022/09/15 02:09:59;;;;;;;3.28;1.90;;;;;;;17.58;100.00;97706.56;4423492;32;20101;-75
2022/09/15 02:12:34;;;;;;;4.72;2.15;;;;;;;17.51;100.00;97703.12;4427762;32;20123;-75
2022/09/15 02:15:07;;;;;;;2.45;2.05;;;;;;;17.48;100.00;97699.03;4483755;32;20175;-75
2022/09/15 02:17:38;;;;;;;3.75;2.22;;;;;;;17.53;100.00;97701.91;4483987;32;20124;-75
2022/09/15 02:20:37;;;;;;;3.37;1.73;;;;;;;17.54;100.00;97700.06;4483829;32;20486;-75
2022/09/15 02:23:34;;;;;;;3.87;2.35;;;;;;;17.53;100.00;97706.34;4483614;32;20111;-75
2022/09/15 02:26:05;;;;;;;3.47;1.90;;;;;;;17.52;100.00;97697.59;4483926;32;20126;-75
2022/09/15 02:28:36;;;;;;;3.15;1.80;;;;;;;17.48;100.00;97704.34;4483615;32;20093;-75
2022/09/15 02:31:06;;;;;;;2.80;1.87;;;;;;;17.52;100.00;97700.25;4483644;32;20466;-75
2022/09/15 02:33:39;;;;;;;4.25;1.48;;;;;;;17.54;100.00;97700.84;4483470;32;20458;-75
2022/09/15 02:36:09;;;;;;;8.32;1.90;;;;;;;17.53;100.00;97693.94;4484992;31;20092;-75
2022/09/15 02:38:43;;;;;;;2.37;1.37;;;;;;;17.57;100.00;97691.69;4483808;32;20112;-75
2022/09/15 02:41:12;;;;;;;3.08;1.50;;;;;;;17.55;100.00;97688.44;4483742;32;20125;-75
2022/09/15 02:43:46;;;;;;;5.80;1.80;;;;;;;17.54;100.00;97692.09;4484851;31;20100;-75
2022/09/15 02:46:19;;;;;;;2.60;1.40;;;;;;;17.51;100.00;97687.22;4485247;31;20107;-75
2022/09/15 02:48:46;;;;;;;3.33;2.00;;;;;;;17.44;100.00;97684.63;4483533;32;20108;-75
2022/09/15 02:51:15;;;;;;;2.28;1.80;;;;;;;17.42;100.00;97686.63;4484885;31;20108;-75
2022/09/15 02:53:44;;;;;;;3.17;2.05;;;;;;;17.39;100.00;97695.00;4484449;31;20106;-75
2022/09/15 02:56:11;;;;;;;2.83;1.80;;;;;;;17.41;100.00;97687.69;4484835;31;20526;-75
2022/09/15 02:58:39;;;;;;;2.05;1.65;;;;;;;17.41;100.00;97692.13;4484412;31;20198;-75
2022/09/15 03:01:06;;;;;;;3.12;1.70;;;;;;;17.34;100.00;97687.66;4483464;32;20514;-75
2022/09/15 03:03:34;;;;;;;4.00;1.90;;;;;;;17.29;100.00;97692.78;4484627;32;20084;-75
2022/09/15 03:06:16;;;;;;;2.80;2.03;;;;;;;17.34;100.00;97692.16;4497761;31;20133;-76
2022/09/15 03:08:48;;;;;;;4.30;2.05;;;;;;;17.31;100.00;97697.88;4484813;32;20504;-75
2022/09/15 03:11:18;;;;;;;4.35;1.67;;;;;;;17.28;100.00;97703.59;4484682;31;20115;-75
2022/09/15 03:13:45;;;;;;;3.17;1.80;;;;;;;17.32;100.00;97707.41;4484555;31;20514;-75
2022/09/15 03:16:14;;;;;;;3.03;1.65;;;;;;;17.36;100.00;97706.81;4484457;31;20118;-75
2022/09/15 03:18:41;;;;;;;4.25;1.85;;;;;;;17.40;100.00;97703.75;4484433;32;20104;-75
2022/09/15 03:21:12;;;;;;;5.85;1.90;;;;;;;17.44;100.00;97702.31;4484404;31;20083;-75
2022/09/15 03:23:39;;;;;;;4.80;1.98;;;;;;;17.38;100.00;97699.47;4484285;31;20103;-75
2022/09/15 03:26:08;;;;;;;5.75;2.00;;;;;;;17.35;100.00;97694.59;4484461;31;20123;-75
2022/09/15 03:28:36;;;;;;;1.92;1.40;;;;;;;17.31;100.00;97688.09;4484076;31;20089;-75
2022/09/15 03:31:05;;;;;;;2.15;1.50;;;;;;;17.32;100.00;97680.94;4484201;31;20467;-75
2022/09/15 03:33:32;;;;;;;7.87;1.75;;;;;;;17.34;100.00;97686.88;4484008;31;20608;-75
2022/09/15 03:36:00;;;;;;;2.10;1.90;;;;;;;17.32;100.00;97691.53;4484231;31;20088;-75
2022/09/15 03:38:27;;;;;;;3.20;1.70;;;;;;;17.31;100.00;97687.28;4484133;31;20104;-75
2022/09/15 03:41:02;;;;;;;4.15;1.87;;;;;;;17.30;100.00;97683.81;4484054;31;20168;-75
2022/09/15 03:43:30;;;;;;;2.17;1.70;;;;;;;17.28;100.00;97677.13;4484057;32;20084;-75
2022/09/15 03:45:58;;;;;;;2.47;1.83;;;;;;;17.24;100.00;97689.13;4483992;31;20103;-75
2022/09/15 03:48:27;;;;;;;5.40;1.90;;;;;;;17.24;100.00;97697.88;4483938;32;20120;-75
2022/09/15 03:50:54;;;;;;;2.10;1.50;;;;;;;17.26;100.00;97702.97;4483957;31;20175;-75
2022/09/15 03:53:22;;;;;;;3.00;1.35;;;;;;;17.30;100.00;97712.13;4483764;31;20644;-75
2022/09/15 03:55:49;;;;;;;2.08;1.23;;;;;;;17.33;100.00;97711.72;4484193;31;20514;-75
2022/09/15 03:58:17;;;;;;;2.72;1.40;;;;;;;17.38;100.00;97711.88;4483706;31;20164;-75
2022/09/15 04:00:45;;;;;;;2.25;1.50;;;;;;;17.40;100.00;97714.34;4483866;31;20127;-75
2022/09/15 04:03:12;;;;;;;4.60;1.52;;;;;;;17.32;100.00;97712.72;4483107;32;20119;-75
2022/09/15 04:05:40;;;;;;;2.50;1.42;;;;;;;17.29;100.00;97713.13;4495711;31;20151;-76
2022/09/15 04:08:11;;;;;;;2.00;1.50;;;;;;;17.25;100.00;97730.47;4486826;31;20108;-75
2022/09/15 04:10:39;;;;;;;2.62;1.67;;;;;;;17.29;100.00;97723.72;4486111;31;20110;-75
2022/09/15 04:13:07;;;;;;;4.75;1.73;;;;;;;17.33;100.00;97715.16;4485708;31;20526;-76
2022/09/15 04:15:34;;;;;;;2.67;1.30;;;;;;;17.34;100.00;97722.09;4485760;32;20552;-76
2022/09/15 04:18:03;;;;;;;3.40;1.23;;;;;;;17.47;100.00;97720.44;4485899;31;20123;-76
2022/09/15 04:20:30;;;;;;;3.50;1.65;;;;;;;17.45;100.00;97728.59;4486010;31;20084;-76
2022/09/15 04:22:57;;;;;;;5.85;1.65;;;;;;;17.46;100.00;97724.13;4485710;31;20212;-75
2022/09/15 04:25:26;;;;;;;2.37;1.90;;;;;;;17.56;100.00;97722.66;4486202;31;20409;-75
2022/09/15 04:27:54;;;;;;;1.87;1.67;;;;;;;17.59;100.00;97716.13;4485922;31;20100;-75
2022/09/15 04:30:21;;;;;;;5.90;1.83;;;;;;;17.53;100.00;97723.06;4484120;32;20100;-74
2022/09/15 04:32:50;;;;;;;4.18;2.20;;;;;;;17.49;100.00;97732.44;4485583;31;20097;-74
2022/09/15 04:35:17;;;;;;;3.75;2.28;;;;;;;17.50;100.00;97757.91;4485795;31;20467;-75
2022/09/15 04:37:44;;;;;;;2.83;2.30;;;;;;;17.47;100.00;97760.97;4492085;31;20526;-74
2022/09/15 04:40:11;;;;;;;6.68;2.53;;;;;;;17.47;100.00;97753.03;4485679;31;20453;-75
2022/09/15 04:42:39;;;;;;;5.53;2.62;;;;;;;17.54;100.00;97753.81;4485800;31;20096;-74
2022/09/15 04:45:06;;;;;;;9.35;4.18;;;;;;;17.61;100.00;97755.63;4485891;31;20450;-74
2022/09/15 04:47:33;;;;;;;5.65;2.42;;;;;;;17.60;100.00;97756.69;4486027;31;20116;-75
2022/09/15 04:50:01;;;;;;;6.32;3.20;;;;;;;17.61;100.00;97742.38;4485789;31;20118;-75
2022/09/15 04:52:28;;;;;;;5.53;3.40;;;;;;;17.68;100.00;97730.78;4485519;31;20148;-74
2022/09/15 04:54:57;;;;;;;8.60;3.20;;;;;;;17.71;100.00;97729.53;4484404;32;20111;-75
2022/09/15 04:57:24;;;;;;;5.18;2.80;;;;;;;17.80;100.00;97730.94;4485175;31;20438;-75
2022/09/15 04:59:51;;;;;;;5.62;3.35;;;;;;;17.86;100.00;97729.28;4485971;31;20808;-74
2022/09/15 05:02:19;;;;;;;5.00;2.80;;;;;;;17.91;100.00;97726.84;4496471;31;20108;-75
2022/09/15 05:04:47;;;;;;;7.75;3.20;;;;;;;17.90;100.00;97728.69;4495666;31;20445;-75
2022/09/15 05:07:14;;;;;;;8.15;3.37;;;;;;;17.94;100.00;97746.81;4496533;31;20100;-75
2022/09/15 05:09:42;;;;;;;7.78;3.22;;;;;;;17.98;100.00;97740.09;4497539;31;20095;-75
2022/09/15 05:12:09;;;;;;;6.07;3.03;;;;;;;17.95;100.00;97743.94;4487048;31;20727;-75
2022/09/15 05:14:36;;;;;;;8.60;3.50;;;;;;;17.96;100.00;97750.09;4486761;31;20156;-76
2022/09/15 05:17:03;;;;;;;4.28;2.75;;;;;;;17.99;100.00;97755.78;4484566;31;20124;-76
2022/09/15 05:19:30;;;;;;;6.60;3.28;;;;;;;18.06;100.00;97758.38;4493651;31;20133;-76
2022/09/15 05:21:57;;;;;;;5.32;3.00;;;;;;;18.12;100.00;97773.44;4498999;31;20527;-75
2022/09/15 05:24:25;;;;;;;5.62;3.30;;;;;;;18.16;100.00;97785.25;4495594;31;20122;-76
2022/09/15 05:26:52;;;;;;;3.97;2.85;;;;;;;18.24;100.00;97787.69;4493630;31;20092;-77
2022/09/15 05:29:19;;;;;;;5.90;2.90;;;;;;;18.19;100.00;97795.44;4493286;31;20092;-76
2022/09/15 05:31:46;;;;;;;7.50;3.15;;;;;;;18.16;100.00;97795.06;4495794;31;20112;-76
2022/09/15 05:34:14;;;;;;;5.40;2.85;;;;;;;18.14;100.00;97797.91;4500503;31;20104;-76
2022/09/15 05:36:41;;;;;;;5.55;2.90;;;;;;;18.19;100.00;97807.88;4500756;31;20100;-75
2022/09/15 05:39:08;;;;;;;11.45;3.15;;;;;;;18.31;100.00;97798.25;4493894;31;20142;-75
2022/09/15 05:41:35;;;;;;;5.60;2.95;;;;;;;18.29;100.00;97794.19;4492987;31;20147;-75
2022/09/15 05:44:02;;;;;;;6.55;2.72;;;;;;;18.37;100.00;97791.31;4492463;31;20108;-75
2022/09/15 05:46:30;;;;;;;6.95;2.90;;;;;;;18.46;100.00;97794.53;4480853;31;20826;-76
2022/09/15 05:48:57;;;;;;;6.43;2.85;;;;;;;18.56;100.00;97795.69;4490848;31;20151;-76
2022/09/15 05:51:25;;;;;;;5.28;2.90;;;;;;;18.66;100.00;97783.81;4496126;31;20843;-76
2022/09/15 05:53:52;;;;;;;6.68;3.37;;;;;;;18.76;100.00;97778.84;4497513;31;20448;-76
2022/09/15 05:56:19;;;;;;;7.35;2.80;;;;;;;18.85;100.00;97774.06;4492674;31;20114;-75
2022/09/15 05:58:47;;;;;;;4.62;3.15;;;;;;;18.78;100.00;97766.97;4486652;31;20483;-75
2022/09/15 06:01:23;;;;;;;8.63;3.17;;;;;;;18.83;100.00;97768.19;4495579;31;20440;-75
2022/09/15 06:03:51;;;;;;;5.90;3.50;;;;;;;18.81;100.00;97771.03;4497909;31;20160;-75
2022/09/15 06:06:20;;;;;;;10.68;5.10;;;;;;;18.85;100.00;97776.72;4490634;31;208076;-76
2022/09/15 06:08:50;;;;;;;7.28;2.92;;;;;;;18.88;100.00;97785.13;4496670;31;20108;-78
2022/09/15 06:11:27;;;;;;;6.72;2.95;;;;;;;18.88;100.00;97777.16;4498561;31;20156;-77
2022/09/15 06:13:57;;;;;;;11.05;4.43;;;;;;;18.85;100.00;97784.69;4500125;31;20454;-75
2022/09/15 06:16:25;;;;;;;3.90;3.00;;;;;;;18.93;100.00;97795.09;4495567;31;20139;-76
2022/09/15 06:18:53;;;;;;;7.80;3.45;;;;;;;19.03;100.00;97794.59;4498347;31;20096;-76
2022/09/15 06:21:22;;;;;;;8.95;3.37;;;;;;;19.17;100.00;97784.69;4498505;31;20096;-76
2022/09/15 06:23:54;;;;;;;8.63;4.05;;;;;;;19.25;100.00;97792.41;4490453;31;20088;-75
2022/09/15 06:26:22;;;;;;;8.10;4.18;;;;;;;19.41;100.00;97804.28;4497843;31;20084;-76
2022/09/15 06:28:52;;;;;;;6.37;3.45;;;;;;;19.53;100.00;97815.84;4499735;31;20170;-77
2022/09/15 06:31:20;;;;;;;6.50;3.28;;;;;;;19.69;100.00;97815.28;4496767;31;20084;-77
2022/09/15 06:33:50;;;;;;;8.15;3.20;;;;;;;19.82;100.00;97817.03;4500231;31;20473;-77
2022/09/15 06:36:19;;;;;;;7.28;3.53;;;;;;;19.99;100.00;97811.94;4498762;31;22190;-78
2022/09/15 06:38:47;;;;;;;7.22;2.55;;;;;;;20.05;100.00;97806.78;4492722;31;20523;-76
2022/09/15 06:41:14;;;;;;;3.35;2.65;;;;;;;20.09;100.00;97824.72;4491184;31;20097;-76
2022/09/15 06:43:41;;;;;;;4.90;2.78;;;;;;;20.07;100.00;97828.63;4495890;31;20125;-76
2022/09/15 06:46:14;;;;;;;4.82;2.65;;;;;;;20.00;100.00;97826.88;4496596;31;20139;-73
2022/09/15 06:48:41;;;;;;;5.03;2.75;;;;;;;19.99;100.00;97822.56;4498973;31;20377;-76
2022/09/15 06:51:15;;;;;;;4.60;2.80;;;;;;;20.01;100.00;97827.66;4497533;31;20096;-76
2022/09/15 06:53:44;;;;;;;6.82;3.12;;;;;;;20.05;100.00;97822.75;4490698;31;20113;-75
2022/09/15 06:56:15;;;;;;;4.57;2.78;;;;;;;20.09;100.00;97823.91;4490114;31;20088;-76
2022/09/15 06:58:44;;;;;;;5.45;2.50;;;;;;;20.09;100.00;97827.38;4495768;31;20828;-74
2022/09/15 07:01:14;;;;;;;6.37;2.58;;;;;;;20.16;100.00;97824.66;4485426;31;20179;-74
2022/09/15 07:03:42;;;;;;;3.33;2.45;;;;;;;20.25;100.00;97823.31;4483120;31;20642;-77
2022/09/15 07:06:13;;;;;;;4.50;2.47;;;;;;;20.34;100.00;97831.81;4493198;31;20188;-77
2022/09/15 07:08:41;;;;;;;5.85;2.62;;;;;;;20.29;100.00;97837.78;4493332;31;20787;-77
2022/09/15 07:11:09;;;;;;;4.30;2.60;;;;;;;20.39;100.00;97847.91;4499030;31;20509;-77
2022/09/15 07:13:36;;;;;;;5.62;2.83;;;;;;;20.36;100.00;97845.69;4494793;31;20501;-77
2022/09/15 07:16:06;;;;;;;3.60;2.42;;;;;;;20.42;100.00;97850.09;4494788;31;20108;-78
2022/09/15 07:18:33;;;;;;;7.12;2.87;;;;;;;20.64;100.00;97854.97;4496270;31;20092;-78
2022/09/15 07:21:08;;;;;;;8.47;4.10;;;;;;;20.77;100.00;97852.16;4484526;31;20100;-78
2022/09/15 07:23:36;;;;;;;4.15;2.22;;;;;;;20.92;100.00;97844.59;4482637;31;20923;-73
2022/09/15 07:26:11;;;;;;;7.55;2.62;;;;;;;20.85;100.00;97856.38;4495841;31;20125;-75
2022/09/15 07:28:41;;;;;;;4.28;2.28;;;;;;;20.71;100.00;97859.19;4499100;31;20111;-76
2022/09/15 07:31:10;;;;;;;4.28;2.40;;;;;;;20.63;100.00;97862.13;4494961;31;20128;-76
2022/09/15 07:33:37;;;;;;;2.58;2.05;;;;;;;20.64;100.00;97857.63;4493873;31;20104;-76
2022/09/15 07:36:06;;;;;;;3.35;2.53;;;;;;;20.72;100.00;97860.00;4485313;31;20112;-76
2022/09/15 07:38:34;;;;;;;3.45;2.60;;;;;;;20.82;100.00;97868.28;4496338;31;20083;-78
2022/09/15 07:41:06;;;;;;;6.10;3.03;;;;;;;20.84;100.00;97868.84;4484114;31;20104;-77
2022/09/15 07:43:34;;;;;;;8.05;2.40;;;;;;;20.85;100.00;97859.84;4485030;31;20126;-78
2022/09/15 07:46:02;;;;;;;7.18;2.70;;;;;;;21.04;100.00;97863.22;4497122;31;20559;-78
2022/09/15 07:48:29;;;;;;;4.07;2.50;;;;;;;21.08;100.00;97874.25;4501312;31;20154;-78
2022/09/15 07:50:58;;;;;;;4.62;2.15;;;;;;;21.13;100.00;97861.06;4494950;31;20113;-78
2022/09/15 07:53:29;;;;;;;5.18;2.50;;;;;;;21.16;100.00;97865.13;4497967;31;20560;-80
2022/09/15 07:55:56;;;;;;;3.03;2.10;;;;;;;21.22;100.00;97872.22;4491388;31;20159;-80
2022/09/15 07:58:24;;;;;;;4.07;2.35;;;;;;;21.42;100.00;97875.41;4499306;31;20265;-76
2022/09/15 08:00:51;;;;;;;3.50;2.10;;;;;;;21.70;100.00;97881.94;4498224;31;20171;-78
2022/09/15 08:03:18;;;;;;;2.75;1.90;;;;;;;21.75;100.00;97879.38;4499250;31;20088;-78
2022/09/15 08:05:45;;;;;;;4.80;1.80;;;;;;;21.66;100.00;97871.97;4496307;31;20113;-77
2022/09/15 08:08:12;;;;;;;4.15;1.65;;;;;;;21.69;100.00;97872.31;4487359;31;20111;-78
2022/09/15 08:10:40;;;;;;;5.43;1.85;;;;;;;21.64;100.00;97864.19;4492261;31;20096;-75
2022/09/15 08:13:07;;;;;;;2.80;1.98;;;;;;;21.76;100.00;97886.34;4498495;31;20155;-77
2022/09/15 08:15:38;;;;;;;3.62;1.70;;;;;;;21.87;100.00;97870.59;4492716;31;20135;-76
2022/09/15 08:18:05;;;;;;;5.72;1.95;;;;;;;21.90;100.00;97883.44;4496622;31;20122;-77
2022/09/15 08:20:32;;;;;;;4.57;1.70;;;;;;;22.10;100.00;97877.75;4499292;31;20814;-77
2022/09/15 08:22:59;;;;;;;6.07;1.90;;;;;;;22.19;100.00;97872.88;4499729;31;20148;-77
2022/09/15 08:25:27;;;;;;;5.07;1.30;;;;;;;22.37;100.00;97879.94;4493429;31;20100;-76
2022/09/15 08:27:55;;;;;;;4.40;1.60;;;;;;;22.40;96.45;97882.94;4499426;31;20396;-76
2022/09/15 08:30:22;;;;;;;2.40;1.55;;;;;;;22.38;92.99;97882.37;4497295;31;20477;-77
2022/09/15 08:32:50;;;;;;;1.85;1.35;;;;;;;22.34;96.72;97878.56;4497706;31;20126;-77
2022/09/15 08:35:17;;;;;;;3.25;1.35;;;;;;;22.49;95.25;97878.06;4496160;31;20196;-77
2022/09/15 08:37:45;;;;;;;3.35;1.30;;;;;;;22.66;95.44;97862.09;4490856;31;20110;-78
2022/09/15 08:40:33;;;;;;;1.67;1.35;;;;;;;22.82;94.30;97865.88;4490995;31;20145;-77
2022/09/15 08:43:12;;;;;;;4.10;1.35;;;;;;;22.91;91.20;97866.28;4489678;31;20092;-77
2022/09/15 08:45:51;;;;;;;2.75;1.27;;;;;;;23.13;93.43;97858.44;4484143;31;20209;-77
2022/09/15 08:48:23;;;;;;;2.40;1.80;;;;;;;23.07;87.12;97849.50;4495316;31;20107;-77
2022/09/15 08:50:52;;;;;;;3.20;1.10;;;;;;;23.14;84.22;97852.84;4491682;31;20103;-77
2022/09/15 08:53:23;;;;;;;2.85;1.37;;;;;;;23.32;86.65;97849.16;4500152;31;20484;-78
2022/09/15 08:56:03;;;;;;;1.20;1.10;;;;;;;23.41;84.58;97854.91;4487346;31;20118;-77
2022/09/15 08:58:36;;;;;;;3.03;1.12;;;;;;;23.60;82.71;97857.31;4484178;31;20083;-77
2022/09/15 09:01:09;;;;;;;1.65;1.10;;;;;;;23.68;78.82;97833.66;4487336;31;20104;-78
2022/09/15 09:03:43;;;;;;;3.22;1.00;;;;;;;23.61;81.15;97840.25;4490292;31;20092;-78
2022/09/15 09:06:13;;;;;;;2.05;1.10;;;;;;;23.62;78.23;97842.66;4487058;31;20229;-78
2022/09/15 09:08:47;;;;;;;2.55;1.12;;;;;;;23.66;79.74;97830.41;4490020;31;20175;-77
2022/09/15 09:11:23;;;;;;;6.45;1.15;;;;;;;23.93;77.70;97832.44;4487038;31;20120;-76
2022/09/15 09:13:53;;;;;;;3.15;1.17;;;;;;;24.00;74.90;97824.25;4488040;31;20143;-76
2022/09/15 09:16:45;;;;;;;2.60;1.23;;;;;;;23.87;75.66;97823.53;4493080;31;20831;-76
2022/09/15 09:19:34;;;;;;;1.77;0.95;;;;;;;23.97;74.21;97822.03;4496468;31;20099;-76
2022/09/15 09:22:23;;;;;;;1.30;0.88;;;;;;;23.96;75.10;97815.09;4495017;31;20126;-76
2022/09/15 09:24:52;;;;;;;0.82;0.68;;;;;;;23.84;74.53;97817.84;4488948;31;20114;-77
2022/09/15 09:27:23;;;;;;;2.35;0.80;;;;;;;23.92;72.11;97820.94;4483338;31;20167;-77
2022/09/15 09:30:11;;;;;;;1.40;0.95;;;;;;;23.94;72.93;97815.34;4488120;31;20163;-77
2022/09/15 09:32:46;;;;;;;1.98;0.80;;;;;;;24.19;72.47;97814.81;4486186;31;20224;-76
2022/09/15 09:35:42;;;;;;;1.55;0.62;;;;;;;23.95;67.76;97813.47;4485019;31;20080;-77
2022/09/15 09:38:40;;;;;;;1.37;0.80;;;;;;;23.92;68.62;97810.22;4482310;31;20130;-77
2022/09/15 09:41:12;;;;;;;3.72;0.90;;;;;;;23.96;66.01;97825.78;4477257;31;20103;-78
2022/09/15 09:43:41;;;;;;;4.55;0.80;;;;;;;24.34;70.52;97813.41;4483142;31;20119;-76
2022/09/15 09:46:13;;;;;;;3.45;0.80;;;;;;;24.45;67.68;97804.41;4483626;31;20160;-78
2022/09/15 09:49:17;;;;;;;0.90;0.70;;;;;;;24.53;66.23;97804.00;4489940;31;20104;-77
2022/09/15 09:51:51;;;;;;;1.30;0.60;;;;;;;24.90;64.91;97786.41;4417262;32;20131;-74
2022/09/15 09:54:19;;;;;;;;;;;;;;;24.88;65.14;97794.72;4430401;32;20196;-75
2022/09/15 09:56:48;;;;;;;6.82;2.87;;;;;;;24.88;66.32;97783.19;4430811;32;20032;-76
2022/09/15 09:59:33;;;;;;;3.05;0.90;;;;;;;25.08;66.62;97779.88;4425915;32;20143;-75
2022/09/15 10:02:08;;;;;;;5.00;1.08;;;;;;;25.51;64.55;97780.75;4424194;32;20156;-76
2022/09/15 10:04:37;;;;;;;2.60;0.80;;;;;;;25.58;61.97;97764.44;4413587;32;20156;-75
2022/09/15 10:07:05;;;;;;;1.73;1.02;;;;;;;25.99;62.22;97759.31;4431983;32;20124;-75
2022/09/15 10:09:32;;;;;;;2.03;1.00;;;;;;;26.03;62.20;97753.16;4431723;32;20113;-74
2022/09/15 10:12:00;;;;;;;4.28;1.25;;;;;;;26.25;62.42;97749.44;4418179;32;20105;-77
2022/09/15 10:14:38;;;;;;;2.17;1.12;;;;;;;26.42;63.06;97743.03;4431856;32;20127;-79
2022/09/15 10:17:13;;;;;;;3.87;1.17;;;;;;;26.55;62.90;97742.53;4432555;32;20525;-76
2022/09/15 10:19:58;;;;;;;3.53;1.10;;;;;;;26.39;62.12;97728.28;4420008;32;20446;-74
2022/09/15 10:22:25;;;;;;;3.50;1.73;;;;;;;26.50;61.00;97719.16;4432213;32;20144;-75
2022/09/15 10:24:53;;;;;;;2.90;1.10;;;;;;;26.56;61.85;97714.63;4428548;32;20139;-74
2022/09/15 10:27:29;;;;;;;3.33;1.05;;;;;;;26.79;59.73;97712.50;4428898;31;20195;-74
2022/09/15 10:30:17;;;;;;;2.35;1.25;;;;;;;27.00;60.01;97716.00;4496984;31;20406;-75
2022/09/15 10:32:44;;;;;;;4.50;1.00;;;;;;;27.34;58.74;97718.91;4495361;31;20448;-75
2022/09/15 10:35:14;;;;;;;2.47;0.90;;;;;;;27.69;59.74;97711.84;4495703;31;20413;-74
2022/09/15 10:37:56;;;;;;;1.85;1.30;;;;;;;27.77;56.02;97710.47;4496574;31;20100;-75
2022/09/15 10:40:34;;;;;;;2.85;1.12;;;;;;;27.37;57.03;97717.56;4488325;31;20118;-74
2022/09/15 10:43:18;;;;;;;2.90;1.25;;;;;;;27.42;56.81;97715.69;4495603;31;20432;-74
2022/09/15 10:45:47;;;;;;;4.43;1.42;;;;;;;27.34;57.32;97718.91;4488623;31;20183;-74
2022/09/15 10:48:39;;;;;;;5.47;1.10;;;;;;;27.19;57.81;97711.69;4489775;31;20152;-74
2022/09/15 10:51:50;;;;;;;5.32;1.30;;;;;;;26.88;58.22;97721.63;4496646;31;20143;-74
2022/09/15 10:54:37;;;;;;;2.10;1.40;;;;;;;26.54;61.72;97722.09;4495240;31;20130;-75
2022/09/15 10:57:15;;;;;;;4.12;1.70;;;;;;;26.32;65.13;97731.22;4494724;31;20184;-75
2022/09/15 11:00:05;;;;;;;3.60;1.52;;;;;;;26.19;66.73;97724.47;4495679;31;20110;-75
2022/09/15 11:03:10;;;;;;;6.40;2.30;;;;;;;26.09;71.58;97731.72;4497075;31;20099;-74
2022/09/15 11:06:05;;;;;;;6.97;1.92;;;;;;;26.06;75.33;97724.97;4486740;31;20580;-75
2022/09/15 11:08:38;;;;;;;6.35;2.05;;;;;;;26.18;75.02;97724.75;4487598;31;20500;-76
2022/09/15 11:11:29;;;;;;;3.90;1.80;;;;;;;25.90;75.40;97713.34;4488049;31;20122;-75
2022/09/15 11:14:21;;;;;;;6.50;1.98;;;;;;;25.76;77.08;97714.91;4488232;31;20458;-73
2022/09/15 11:16:48;;;;;;;8.00;2.15;;;;;;;25.51;77.61;97705.66;4491264;31;20499;-73
2022/09/15 11:19:16;;;;;;;6.20;1.70;;;;;;;25.27;78.07;97702.53;4497075;31;20095;-74
2022/09/15 11:21:55;;;;;;;6.65;1.92;;;;;;;25.14;78.73;97712.66;4500144;31;20088;-74
2022/09/15 11:24:28;;;;;;;7.30;2.85;;;;;;;25.01;79.87;97714.97;4501513;31;20512;-73
2022/09/15 11:27:13;;;;;;;5.65;2.15;;;;;;;24.87;80.60;97718.06;4501117;31;20103;-73
2022/09/15 11:29:46;;;;;;;4.32;1.83;;;;;;;24.60;82.50;97715.44;4496573;31;20181;-74
2022/09/15 11:33:05;;;;;;;4.25;1.87;;;;;;;24.44;83.20;97712.59;4494147;31;20111;-73
2022/09/15 11:35:55;;;;;;;4.75;1.87;;;;;;;24.39;84.67;97698.34;4440001;32;20120;-74
2022/09/15 11:38:30;;;;;;;8.07;2.30;;;;;;;24.38;84.09;97694.06;4376118;32;20173;-74
2022/09/15 11:41:15;;;;;;;6.93;2.08;;;;;;;24.41;88.34;97688.22;4376669;32;20646;-74
2022/09/15 11:43:49;;;;;;;5.18;2.37;;;;;;;24.35;88.41;97671.28;4377883;32;20170;-74
2022/09/15 11:46:22;;;;;;;5.97;2.17;;;;;;;24.36;89.90;97664.06;4377142;32;20970;-74
2022/09/15 11:49:13;;;;;;;3.53;2.33;;;;;;;24.47;92.12;97655.06;4378720;32;20160;-74
2022/09/15 11:51:49;;;;;;;4.95;2.25;;;;;;;24.70;89.04;97642.44;4376654;32;20095;-74